Time;durP1;ratioP1;P1;durP2;ratioP2;P2;SDS_P1;SDS_P2;PMS_P1;PMS_P2;Temp;Humidity;BMP_temperature;BMP_pressure;BME280_temperature;BME280_humidity;BME280_pressure;Samples;Min_cycle;Max_cycle;Signal;HPM_P1;HPM_P2
2023/04/03 00:00:49;;;;;;;2.40;2.20;;;;;;;0.71;100.00;97051.84;5060172;28;20516;-77
2023/04/03 00:03:17;;;;;;;3.60;3.00;;;;;;;0.48;100.00;97021.69;5064060;28;20439;-76
2023/04/03 00:05:45;;;;;;;2.60;2.40;;;;;;;0.39;100.00;97000.50;5075296;28;21051;-76
2023/04/03 00:08:12;;;;;;;2.90;2.70;;;;;;;0.44;100.00;96997.19;5059821;28;20581;-77
2023/04/03 00:10:38;;;;;;;2.23;2.03;;;;;;;0.75;100.00;97047.72;5058249;28;20464;-77
2023/04/03 00:13:06;;;;;;;2.93;2.73;;;;;;;0.39;100.00;97021.31;5068108;28;20448;-77
2023/04/03 00:15:34;;;;;;;5.50;2.67;;;;;;;0.38;100.00;97011.16;5041030;28;20800;-77
2023/04/03 00:18:02;;;;;;;2.60;2.40;;;;;;;0.43;100.00;97045.84;5066120;28;20439;-77
2023/04/03 00:20:29;;;;;;;4.97;3.40;;;;;;;0.53;100.00;97050.34;5045765;28;21014;-76
2023/04/03 00:22:55;;;;;;;2.60;2.40;;;;;;;0.29;100.00;97024.59;5037664;28;20489;-77
2023/04/03 00:25:22;;;;;;;2.80;2.60;;;;;;;0.23;100.00;97042.97;5065397;28;20436;-76
2023/04/03 00:27:49;;;;;;;3.97;2.83;;;;;;;0.22;100.00;97033.59;5072678;28;20482;-76
2023/04/03 00:30:19;;;;;;;2.47;2.27;;;;;;;0.28;100.00;97053.47;5051364;28;20511;-77
2023/04/03 00:32:48;;;;;;;3.73;3.00;;;;;;;0.29;100.00;97048.00;5061296;28;20858;-76
2023/04/03 00:35:18;;;;;;;2.93;2.63;;;;;;;0.14;100.00;97013.25;5028861;28;20943;-76
2023/04/03 00:37:45;;;;;;;2.87;2.57;;;;;;;0.24;100.00;97042.72;5037997;28;20434;-76
2023/04/03 00:40:14;;;;;;;2.27;2.07;;;;;;;0.21;100.00;97039.84;5038876;28;20432;-77
2023/04/03 00:42:43;;;;;;;1.97;1.83;;;;;;;-0.03;100.00;97002.88;5062586;28;20449;-77
2023/04/03 00:45:13;;;;;;;2.87;2.67;;;;;;;0.38;100.00;97048.34;5059365;28;20843;-77
2023/04/03 00:47:41;;;;;;;4.00;2.60;;;;;;;0.27;100.00;97050.06;5071922;28;20439;-76
2023/04/03 00:50:08;;;;;;;3.13;2.47;;;;;;;0.34;100.00;97047.28;5047963;28;20465;-77
2023/04/03 00:52:37;;;;;;;2.80;2.60;;;;;;;0.15;100.00;97013.00;5040969;28;20489;-76
2023/04/03 00:55:07;;;;;;;2.73;2.47;;;;;;;0.25;100.00;97048.72;5050779;28;20463;-76
2023/04/03 00:57:35;;;;;;;2.70;2.50;;;;;;;0.03;100.00;97020.13;5054294;28;20464;-77
2023/04/03 01:00:08;;;;;;;3.27;2.33;;;;;;;0.24;100.00;97053.13;5050048;28;20428;-76
2023/04/03 01:02:36;;;;;;;2.70;2.50;;;;;;;0.32;100.00;97051.16;5074250;28;21007;-77
2023/04/03 01:05:04;;;;;;;2.43;2.23;;;;;;;0.12;100.00;97010.09;5074226;28;20478;-76
2023/04/03 01:07:33;;;;;;;2.70;2.00;;;;;;;0.13;100.00;97006.44;5074048;28;21023;-77
2023/04/03 01:10:03;;;;;;;3.80;2.60;;;;;;;0.51;100.00;97042.00;5070669;28;20514;-76
2023/04/03 01:12:31;;;;;;;2.83;2.63;;;;;;;0.53;100.00;97034.72;5053911;28;20453;-77
2023/04/03 01:15:01;;;;;;;2.20;2.00;;;;;;;0.54;100.00;97044.13;5054843;28;20432;-76
2023/04/03 01:17:32;;;;;;;2.70;2.50;;;;;;;0.44;100.00;97044.00;5062805;28;20428;-76
2023/04/03 01:20:16;;;;;;;3.33;2.67;;;;;;;0.27;100.00;97011.06;5045814;28;20442;-77
2023/04/03 01:23:20;;;;;;;2.63;2.53;;;;;;;0.54;100.00;97044.91;5059498;28;20495;-76
2023/04/03 01:25:51;;;;;;;3.47;2.40;;;;;;;0.42;100.00;97041.66;5071907;28;20504;-77
2023/04/03 01:28:22;;;;;;;3.30;3.00;;;;;;;0.35;100.00;97022.06;5027540;28;20877;-77
2023/04/03 01:30:55;;;;;;;5.80;2.50;;;;;;;0.48;100.00;97045.88;5047237;28;20450;-76
2023/04/03 01:33:22;;;;;;;2.77;2.57;;;;;;;0.50;100.00;97051.63;5065715;28;20463;-76
2023/04/03 01:35:49;;;;;;;3.90;3.10;;;;;;;0.34;100.00;97028.28;5052436;28;20475;-76
2023/04/03 01:38:16;;;;;;;2.73;2.53;;;;;;;0.24;100.00;97024.53;5065264;28;20458;-77
2023/04/03 01:40:42;;;;;;;3.00;2.57;;;;;;;0.34;100.00;97047.28;5053696;28;20434;-77
2023/04/03 01:43:09;;;;;;;3.17;2.40;;;;;;;0.39;100.00;97042.13;5038882;28;20973;-76
2023/04/03 01:45:36;;;;;;;3.80;2.90;;;;;;;0.23;100.00;97033.38;5067783;28;20428;-76
2023/04/03 01:48:04;;;;;;;4.40;3.47;;;;;;;0.46;100.00;97055.75;5053834;28;20444;-76
2023/04/03 01:50:31;;;;;;;2.97;2.77;;;;;;;0.39;100.00;97028.34;5053902;28;20486;-76
2023/04/03 01:52:57;;;;;;;3.00;2.80;;;;;;;0.19;100.00;97028.91;5044087;28;20452;-76
2023/04/03 01:55:24;;;;;;;3.23;3.03;;;;;;;0.10;100.00;97004.34;5060106;28;20494;-77
2023/04/03 01:57:51;;;;;;;7.40;4.53;;;;;;;0.26;100.00;97040.66;5065117;28;20792;-76
2023/04/03 02:00:18;;;;;;;2.70;2.50;;;;;;;0.17;100.00;97023.94;5056929;28;20483;-76
2023/04/03 02:02:44;;;;;;;3.30;3.00;;;;;;;0.22;100.00;97023.22;5052307;28;20456;-77
2023/04/03 02:05:12;;;;;;;3.17;2.80;;;;;;;0.26;100.00;97022.47;5047748;28;20511;-76
2023/04/03 02:07:39;;;;;;;5.20;2.90;;;;;;;0.44;100.00;97054.41;5053637;28;20968;-77
2023/04/03 02:10:07;;;;;;;2.97;2.77;;;;;;;0.33;100.00;97045.72;5059873;28;20503;-76
2023/04/03 02:12:34;;;;;;;6.80;3.37;;;;;;;0.30;100.00;97048.78;5041098;28;20484;-76
2023/04/03 02:15:01;;;;;;;3.23;2.93;;;;;;;0.14;100.00;97016.63;5075427;28;20798;-76
2023/04/03 02:17:27;;;;;;;3.30;3.00;;;;;;;0.15;100.00;97018.22;5040979;28;20783;-76
2023/04/03 02:19:54;;;;;;;3.93;3.00;;;;;;;0.19;100.00;97023.69;5057382;28;20468;-76
2023/04/03 02:22:21;;;;;;;3.20;3.00;;;;;;;-0.04;100.00;97001.31;5075291;28;20889;-76
2023/04/03 02:24:47;;;;;;;3.90;3.50;;;;;;;0.14;100.00;97021.84;5041536;28;20477;-76
2023/04/03 02:27:14;;;;;;;3.50;3.20;;;;;;;0.39;100.00;97055.13;5075232;28;20514;-76
2023/04/03 02:29:41;;;;;;;4.63;4.00;;;;;;;0.23;100.00;97027.38;5041157;28;20802;-77
2023/04/03 02:32:08;;;;;;;5.80;3.03;;;;;;;0.25;100.00;97014.91;5039631;28;20457;-76
2023/04/03 02:34:35;;;;;;;5.47;4.40;;;;;;;0.36;100.00;97050.41;5071936;28;20439;-77
2023/04/03 02:37:02;;;;;;;5.07;3.50;;;;;;;0.31;100.00;97042.56;5077191;28;20786;-76
2023/04/03 02:39:29;;;;;;;2.50;2.40;;;;;;;0.45;100.00;97051.56;5070758;28;20432;-76
2023/04/03 02:41:57;;;;;;;4.00;3.30;;;;;;;0.36;100.00;97034.81;5069595;28;20459;-76
2023/04/03 02:44:24;;;;;;;6.50;2.80;;;;;;;0.11;100.00;97004.09;5095232;28;20430;-76
2023/04/03 02:46:52;;;;;;;3.27;3.07;;;;;;;0.15;100.00;97020.81;5062985;28;20471;-76
2023/04/03 02:49:18;;;;;;;3.30;2.63;;;;;;;0.13;100.00;97007.25;5056889;28;20942;-75
2023/04/03 02:51:45;;;;;;;5.33;3.20;;;;;;;0.18;100.00;97017.72;5056808;28;20518;-76
2023/04/03 02:54:12;;;;;;;3.40;3.20;;;;;;;0.34;100.00;97060.28;5060244;28;20436;-77
2023/04/03 02:56:43;;;;;;;3.53;3.23;;;;;;;0.38;100.00;97053.56;5046712;28;20453;-76
2023/04/03 02:59:10;;;;;;;3.67;3.40;;;;;;;0.33;100.00;97035.31;5044214;28;20973;-76
2023/04/03 03:01:38;;;;;;;4.03;3.27;;;;;;;0.05;100.00;97015.47;5056452;28;20460;-76
2023/04/03 03:04:05;;;;;;;3.57;3.27;;;;;;;-0.11;100.00;97003.31;5052282;28;20473;-76
2023/04/03 03:06:32;;;;;;;3.80;3.20;;;;;;;0.15;100.00;97014.81;5048470;28;20460;-76
2023/04/03 03:08:59;;;;;;;4.00;3.60;;;;;;;0.29;100.00;97050.63;5061217;28;20483;-76
2023/04/03 03:11:26;;;;;;;3.87;3.30;;;;;;;0.00;100.00;97007.63;5065209;28;20477;-76
2023/04/03 03:13:53;;;;;;;4.03;3.60;;;;;;;0.28;100.00;97063.84;5076555;28;20518;-76
2023/04/03 03:16:19;;;;;;;3.73;3.43;;;;;;;0.16;100.00;97048.38;5087266;28;20419;-76
2023/04/03 03:18:46;;;;;;;4.03;3.70;;;;;;;-0.01;100.00;97013.81;5062626;28;20467;-76
2023/04/03 03:21:13;;;;;;;9.30;3.60;;;;;;;0.12;100.00;97043.88;5062031;28;20461;-75
2023/04/03 03:23:40;;;;;;;3.87;3.53;;;;;;;0.19;100.00;97031.50;5076453;28;20445;-76
2023/04/03 03:26:09;;;;;;;3.70;3.40;;;;;;;0.26;100.00;97045.09;5074675;28;20442;-76
2023/04/03 03:28:37;;;;;;;5.23;3.83;;;;;;;0.27;100.00;97049.28;5066697;28;20885;-76
2023/04/03 03:31:09;;;;;;;3.37;3.07;;;;;;;0.29;100.00;97063.63;5060002;28;20552;-76
2023/04/03 03:33:38;;;;;;;4.17;3.77;;;;;;;0.07;100.00;97028.22;5057004;28;20429;-76
2023/04/03 03:36:05;;;;;;;5.13;3.90;;;;;;;0.04;100.00;97023.53;5058729;28;20475;-76
2023/04/03 03:38:32;;;;;;;4.60;3.50;;;;;;;0.28;100.00;97069.84;5055810;28;20960;-76
2023/04/03 03:41:00;;;;;;;3.77;3.47;;;;;;;0.00;100.00;97015.44;5056860;28;20596;-76
2023/04/03 03:43:29;;;;;;;4.50;4.10;;;;;;;0.33;100.00;97069.13;5036633;28;20494;-76
2023/04/03 03:45:56;;;;;;;4.03;3.67;;;;;;;0.25;100.00;97069.53;5063175;28;20483;-76
2023/04/03 03:48:24;;;;;;;7.27;4.40;;;;;;;-0.01;100.00;97027.59;5061379;28;20499;-76
2023/04/03 03:50:51;;;;;;;7.17;3.97;;;;;;;-0.10;100.00;97025.69;5059343;28;20973;-76
2023/04/03 03:53:21;;;;;;;5.93;4.63;;;;;;;0.16;100.00;97058.00;5063170;28;20432;-76
2023/04/03 03:55:51;;;;;;;5.33;3.87;;;;;;;0.27;100.00;97067.50;5035654;28;20440;-76
2023/04/03 03:58:20;;;;;;;4.03;3.57;;;;;;;0.21;100.00;97068.44;5062625;28;20486;-76
2023/04/03 04:00:47;;;;;;;3.67;3.33;;;;;;;0.04;100.00;97039.13;5042790;28;20429;-76
2023/04/03 04:03:14;;;;;;;5.00;4.43;;;;;;;0.01;100.00;97035.19;5048375;28;20453;-76
2023/04/03 04:05:44;;;;;;;4.00;3.30;;;;;;;0.00;100.00;97041.41;5075285;28;20486;-76
2023/04/03 04:08:11;;;;;;;6.77;4.37;;;;;;;0.20;100.00;97070.25;5057019;28;20448;-76
2023/04/03 04:10:38;;;;;;;8.90;5.13;;;;;;;0.06;100.00;97057.84;5055176;28;20847;-76
2023/04/03 04:13:06;;;;;;;4.70;4.30;;;;;;;0.18;100.00;97072.31;5037513;28;20989;-76
2023/04/03 04:15:33;;;;;;;6.50;4.70;;;;;;;-0.09;100.00;97041.03;5066174;28;20440;-76
2023/04/03 04:18:01;;;;;;;6.60;6.00;;;;;;;0.04;100.00;97044.31;5070301;28;20443;-76
2023/04/03 04:20:28;;;;;;;4.50;4.10;;;;;;;-0.09;100.00;97028.03;5058600;28;20526;-76
2023/04/03 04:22:55;;;;;;;5.87;4.77;;;;;;;-0.07;100.00;97023.38;5058657;28;20492;-76
2023/04/03 04:25:22;;;;;;;8.20;4.30;;;;;;;0.24;100.00;97067.94;5065208;28;20458;-76
2023/04/03 04:27:49;;;;;;;4.10;3.70;;;;;;;0.14;100.00;97066.03;5051310;28;20810;-76
2023/04/03 04:30:16;;;;;;;3.77;3.43;;;;;;;0.16;100.00;97076.97;5041010;28;20524;-76
2023/04/03 04:32:45;;;;;;;5.70;4.20;;;;;;;-0.09;100.00;97061.03;5048299;28;20469;-76
2023/04/03 04:35:13;;;;;;;6.43;3.70;;;;;;;-0.13;100.00;97026.97;5045567;28;20464;-75
2023/04/03 04:37:44;;;;;;;3.40;3.10;;;;;;;-0.03;100.00;97052.28;5063212;28;20829;-76
2023/04/03 04:40:11;;;;;;;3.93;3.53;;;;;;;-0.10;100.00;97042.06;5043733;28;20437;-76
2023/04/03 04:42:38;;;;;;;4.37;4.03;;;;;;;-0.02;100.00;97065.03;5054033;28;20453;-76
2023/04/03 04:45:07;;;;;;;4.10;3.60;;;;;;;0.11;100.00;97081.31;5035241;28;20867;-76
2023/04/03 04:47:35;;;;;;;8.93;3.50;;;;;;;0.03;100.00;97074.72;5050845;28;20499;-76
2023/04/03 04:50:03;;;;;;;8.30;3.77;;;;;;;-0.06;100.00;97058.75;5047122;28;20972;-76
2023/04/03 04:52:31;;;;;;;6.30;5.10;;;;;;;-0.43;100.00;97008.34;5073251;28;20852;-76
2023/04/03 04:54:59;;;;;;;9.50;4.50;;;;;;;0.18;100.00;97082.72;5054999;28;20475;-76
2023/04/03 04:57:26;;;;;;;4.70;4.40;;;;;;;-0.22;100.00;97048.38;5040868;28;20448;-76
2023/04/03 04:59:54;;;;;;;5.63;4.27;;;;;;;-0.02;100.00;97072.03;5048258;28;20961;-76
2023/04/03 05:02:21;;;;;;;5.53;4.00;;;;;;;-0.25;100.00;97047.06;5051086;28;20504;-76
2023/04/03 05:04:50;;;;;;;5.63;4.10;;;;;;;0.06;100.00;97095.03;5031148;28;20447;-75
2023/04/03 05:07:20;;;;;;;7.80;5.60;;;;;;;0.10;100.00;97103.13;5042469;28;20787;-76
2023/04/03 05:09:47;;;;;;;11.00;5.30;;;;;;;-0.12;100.00;97064.13;5085793;28;20568;-76
2023/04/03 05:12:16;;;;;;;6.83;4.90;;;;;;;0.09;100.00;97101.56;5034122;28;20914;-76
2023/04/03 05:14:49;;;;;;;9.17;5.60;;;;;;;-0.22;100.00;97048.38;5037739;28;20488;-76
2023/04/03 05:17:16;;;;;;;5.03;4.13;;;;;;;-0.12;100.00;97064.91;5054149;28;20443;-74
2023/04/03 05:19:48;;;;;;;5.00;4.50;;;;;;;-0.02;100.00;97065.03;5041499;28;20509;-76
2023/04/03 05:22:16;;;;;;;4.80;4.30;;;;;;;0.03;100.00;97081.72;5064063;28;20452;-76
2023/04/03 05:24:43;;;;;;;4.50;3.93;;;;;;;0.00;100.00;97075.22;5050953;28;20447;-76
2023/04/03 05:27:10;;;;;;;6.00;4.33;;;;;;;-0.05;100.00;97088.91;5063692;28;20806;-76
2023/04/03 05:29:43;;;;;;;7.30;4.30;;;;;;;-0.03;100.00;97102.44;5063228;28;20444;-76
2023/04/03 05:32:14;;;;;;;8.83;4.40;;;;;;;-0.11;100.00;97087.28;5045724;28;21001;-76
2023/04/03 05:34:41;;;;;;;5.17;3.70;;;;;;;-0.05;100.00;97091.50;5061588;28;20434;-75
2023/04/03 05:37:08;;;;;;;4.13;3.70;;;;;;;-0.10;100.00;97083.66;5054942;28;20487;-76
2023/04/03 05:39:35;;;;;;;6.33;4.70;;;;;;;0.09;100.00;97115.34;5038457;28;21048;-76
2023/04/03 05:42:03;;;;;;;4.73;3.60;;;;;;;-0.09;100.00;97080.03;5054563;28;20475;-75
2023/04/03 05:44:30;;;;;;;5.40;4.63;;;;;;;-0.06;100.00;97082.13;5061487;28;20522;-76
2023/04/03 05:46:57;;;;;;;5.00;4.50;;;;;;;-0.02;100.00;97069.44;5075870;28;20523;-76
2023/04/03 05:49:23;;;;;;;7.73;3.80;;;;;;;0.00;100.00;97088.19;5071076;28;20594;-76
2023/04/03 05:51:51;;;;;;;6.80;5.43;;;;;;;0.34;100.00;97119.31;5051909;28;20472;-76
2023/04/03 05:54:28;;;;;;;5.93;4.47;;;;;;;0.17;100.00;97134.97;5054154;28;20465;-76
2023/04/03 05:57:11;;;;;;;5.70;4.93;;;;;;;0.10;100.00;97093.50;5056754;28;20434;-76
2023/04/03 05:59:39;;;;;;;6.63;4.23;;;;;;;0.29;100.00;97127.84;5049785;28;20526;-76
2023/04/03 06:02:07;;;;;;;5.13;4.73;;;;;;;0.21;100.00;97128.25;5043225;28;20456;-75
2023/04/03 06:04:35;;;;;;;4.43;3.80;;;;;;;0.20;100.00;97124.06;5057872;28;20443;-76
2023/04/03 06:07:02;;;;;;;7.70;4.67;;;;;;;-0.20;100.00;97069.72;5037931;28;20448;-76
2023/04/03 06:09:30;;;;;;;6.60;3.90;;;;;;;0.23;100.00;97131.38;5045251;28;20443;-76
2023/04/03 06:11:58;;;;;;;5.60;4.20;;;;;;;-0.02;100.00;97090.22;5061149;28;20901;-76
2023/04/03 06:14:26;;;;;;;11.70;4.70;;;;;;;0.37;100.00;97145.63;5064630;28;20443;-76
2023/04/03 06:16:53;;;;;;;4.73;4.00;;;;;;;-0.22;100.00;97054.38;5065433;28;20441;-76
2023/04/03 06:19:20;;;;;;;6.63;4.10;;;;;;;0.22;100.00;97125.41;5064114;28;20435;-76
2023/04/03 06:21:51;;;;;;;4.13;3.47;;;;;;;0.27;100.00;97127.31;5044518;28;20463;-76
2023/04/03 06:24:19;;;;;;;3.60;3.30;;;;;;;0.40;100.00;97158.16;5067965;28;20435;-76
2023/04/03 06:26:46;;;;;;;6.50;3.80;;;;;;;0.45;100.00;97147.03;5095681;28;20420;-76
2023/04/03 06:29:13;;;;;;;5.17;4.17;;;;;;;0.44;100.00;97122.81;5061840;28;20444;-76
2023/04/03 06:31:39;;;;;;;5.17;4.40;;;;;;;0.44;100.00;97129.84;5056624;28;20564;-76
2023/04/03 06:34:07;;;;;;;4.90;3.37;;;;;;;0.43;100.00;97123.06;5054253;28;20462;-76
2023/04/03 06:36:35;;;;;;;3.80;3.50;;;;;;;0.62;100.00;97162.56;5043994;28;20456;-76
2023/04/03 06:39:03;;;;;;;3.93;3.73;;;;;;;0.72;100.00;97167.91;5068841;28;20460;-76
2023/04/03 06:41:30;;;;;;;3.60;3.30;;;;;;;0.74;100.00;97165.84;5056811;28;21007;-76
2023/04/03 06:43:57;;;;;;;3.70;3.40;;;;;;;0.40;100.00;97128.72;5076881;28;20598;-76
2023/04/03 06:46:26;;;;;;;6.87;4.70;;;;;;;0.55;100.00;97137.53;5050342;28;20880;-76
2023/04/03 06:48:53;;;;;;;6.00;3.50;;;;;;;0.56;100.00;97153.94;5074623;28;20801;-76
2023/04/03 06:51:28;;;;;;;4.20;3.33;;;;;;;0.82;100.00;97181.84;5062577;28;20538;-76
2023/04/03 06:53:58;;;;;;;5.37;3.47;;;;;;;0.65;100.00;97152.47;5049910;28;20445;-76
2023/04/03 06:56:26;;;;;;;4.07;3.67;;;;;;;0.74;100.00;97150.25;5094959;28;20426;-76
2023/04/03 06:58:55;;;;;;;3.93;3.53;;;;;;;0.84;100.00;97155.56;5058607;28;20436;-76
2023/04/03 07:01:22;;;;;;;3.30;3.00;;;;;;;1.09;100.00;97166.25;5056455;28;20502;-76
2023/04/03 07:03:49;;;;;;;4.90;3.47;;;;;;;1.12;100.00;97196.22;5036355;28;20494;-76
2023/04/03 07:06:17;;;;;;;3.50;3.30;;;;;;;0.87;100.00;97196.72;5066407;28;20523;-76
2023/04/03 07:08:45;;;;;;;4.03;2.73;;;;;;;0.84;100.00;97198.00;5063172;28;20468;-77
2023/04/03 07:11:12;;;;;;;6.57;3.67;;;;;;;0.43;100.00;97160.28;5081678;28;20981;-77
2023/04/03 07:13:40;;;;;;;9.40;4.20;;;;;;;0.27;100.00;97135.88;5047384;28;20468;-76
2023/04/03 07:16:08;;;;;;;5.03;3.80;;;;;;;0.78;100.00;97200.75;5049517;28;21018;-76
2023/04/03 07:18:36;;;;;;;3.73;3.20;;;;;;;0.80;100.00;97203.91;5039955;28;20441;-77
2023/04/03 07:21:04;;;;;;;3.30;3.00;;;;;;;0.63;100.00;97174.56;5063865;28;20433;-76
2023/04/03 07:23:30;;;;;;;3.63;3.33;;;;;;;1.39;100.00;97214.50;5039847;28;20444;-77
2023/04/03 07:25:57;;;;;;;5.10;3.70;;;;;;;1.89;100.00;97200.38;5074204;28;20452;-78
2023/04/03 07:28:24;;;;;;;3.50;3.20;;;;;;;1.98;100.00;97165.75;5056248;28;20440;-76
2023/04/03 07:30:53;;;;;;;4.80;3.23;;;;;;;2.55;100.00;97224.31;5066965;28;20433;-76
2023/04/03 07:33:22;;;;;;;4.17;3.00;;;;;;;2.48;100.00;97213.28;5056241;28;20424;-77
2023/04/03 07:35:49;;;;;;;2.87;2.67;;;;;;;1.77;100.00;97153.59;5055755;28;20946;-77
2023/04/03 07:38:16;;;;;;;4.33;2.53;;;;;;;2.19;100.00;97190.16;5058278;28;20433;-77
2023/04/03 07:40:52;;;;;;;3.67;3.23;;;;;;;1.90;100.00;97228.00;5051097;28;20429;-76
2023/04/03 07:43:20;;;;;;;3.50;2.90;;;;;;;1.40;100.00;97185.59;5046168;28;20468;-77
2023/04/03 07:45:50;;;;;;;4.70;3.87;;;;;;;1.51;100.00;97196.91;5058974;28;20507;-77
2023/04/03 07:48:19;;;;;;;5.73;5.20;;;;;;;1.60;100.00;97153.69;5073553;28;20427;-77
2023/04/03 07:50:46;;;;;;;3.00;2.70;;;;;;;1.92;100.00;97199.84;5055521;28;20785;-76
2023/04/03 07:53:13;;;;;;;8.90;3.03;;;;;;;2.65;100.00;97235.56;5046981;28;20494;-77
2023/04/03 07:55:43;;;;;;;4.37;3.30;;;;;;;2.30;100.00;97202.22;5057300;28;20428;-77
2023/04/03 07:58:12;;;;;;;3.37;2.70;;;;;;;2.68;100.00;97216.03;5055599;28;20486;-76
2023/04/03 08:00:39;;;;;;;3.43;3.13;;;;;;;3.32;100.00;97226.19;5051406;28;20807;-77
2023/04/03 08:03:07;;;;;;;2.43;2.30;;;;;;;2.30;100.00;97230.16;5047841;28;20500;-77
2023/04/03 08:05:38;;;;;;;2.90;2.17;;;;;;;1.90;100.00;97247.03;5054836;28;20440;-76
2023/04/03 08:08:06;;;;;;;2.87;2.63;;;;;;;2.50;100.00;97253.75;5065911;28;20793;-77
2023/04/03 08:10:33;;;;;;;2.17;2.07;;;;;;;2.70;100.00;97258.34;5042916;28;20499;-77
2023/04/03 08:13:02;;;;;;;2.53;2.33;;;;;;;2.63;100.00;97187.28;5071221;28;20921;-77
2023/04/03 08:15:30;;;;;;;5.07;2.07;;;;;;;2.63;100.00;97172.41;5043135;28;20881;-77
2023/04/03 08:17:58;;;;;;;2.80;2.60;;;;;;;3.21;100.00;97254.16;5086478;28;20480;-77
2023/04/03 08:20:25;;;;;;;2.83;2.63;;;;;;;3.15;96.44;97254.38;5055407;28;20477;-77
2023/04/03 08:22:52;;;;;;;3.73;2.03;;;;;;;2.73;95.31;97210.03;5069076;28;20433;-77
2023/04/03 08:25:19;;;;;;;2.47;2.27;;;;;;;3.02;92.25;97223.50;5075335;28;20420;-77
2023/04/03 08:27:45;;;;;;;1.80;1.70;;;;;;;2.73;90.45;97215.25;5059638;28;20792;-77
2023/04/03 08:30:13;;;;;;;2.20;2.00;;;;;;;3.45;91.87;97211.88;5062573;28;20499;-77
2023/04/03 08:32:42;;;;;;;2.23;1.80;;;;;;;3.37;91.51;97234.06;5050925;28;20494;-77
2023/04/03 08:35:09;;;;;;;2.67;2.47;;;;;;;3.33;91.05;97225.16;5065568;28;20781;-77
2023/04/03 08:37:37;;;;;;;3.63;2.57;;;;;;;3.94;92.97;97259.28;5072782;28;20875;-77
2023/04/03 08:40:06;;;;;;;2.73;2.53;;;;;;;3.00;88.09;97256.91;5047095;28;20432;-77
2023/04/03 08:43:03;;;;;;;2.80;2.20;;;;;;;3.38;91.34;97256.56;5068723;28;20880;-77
2023/04/03 08:45:50;;;;;;;2.40;2.20;;;;;;;3.24;87.69;97234.56;5066213;28;20453;-77
2023/04/03 08:48:23;;;;;;;3.80;2.07;;;;;;;3.49;88.56;97249.53;5072747;28;20412;-77
2023/04/03 08:50:54;;;;;;;1.97;1.60;;;;;;;3.51;87.04;97250.06;5056907;28;20436;-77
2023/04/03 08:53:26;;;;;;;2.90;2.67;;;;;;;3.66;88.67;97244.84;5045122;28;20490;-77
2023/04/03 08:55:54;;;;;;;1.87;1.77;;;;;;;3.05;85.78;97228.97;5042130;28;20836;-77
2023/04/03 08:58:28;;;;;;;4.03;2.47;;;;;;;2.88;85.14;97229.16;5044275;28;21021;-77
2023/04/03 09:01:16;;;;;;;2.13;1.87;;;;;;;3.35;84.86;97277.97;5066521;28;20446;-77
2023/04/03 09:03:43;;;;;;;5.60;2.60;;;;;;;2.53;84.97;97250.63;5082222;28;20432;-76
2023/04/03 09:06:17;;;;;;;3.90;2.20;;;;;;;3.00;81.86;97273.38;5063735;28;20452;-76
2023/04/03 09:08:53;;;;;;;6.60;2.70;;;;;;;3.19;83.47;97263.25;5086600;28;20440;-77
2023/04/03 09:11:29;;;;;;;2.07;1.87;;;;;;;3.59;86.28;97278.28;5074204;28;20488;-77
2023/04/03 09:13:58;;;;;;;2.43;1.87;;;;;;;3.26;83.64;97267.22;5049102;28;20436;-77
2023/04/03 09:16:50;;;;;;;3.40;1.63;;;;;;;3.31;85.45;97276.91;5037030;28;20451;-77
2023/04/03 09:19:21;;;;;;;3.67;2.60;;;;;;;2.81;83.74;97261.78;5063649;28;20448;-77
2023/04/03 09:21:48;;;;;;;8.70;2.50;;;;;;;2.99;82.25;97277.03;5044254;28;20463;-77
2023/04/03 09:24:17;;;;;;;1.90;1.73;;;;;;;3.05;84.24;97254.31;5060940;28;20959;-77
2023/04/03 09:26:51;;;;;;;3.03;2.83;;;;;;;3.45;83.53;97279.81;5044522;28;20818;-77
2023/04/03 09:29:21;;;;;;;2.07;1.93;;;;;;;3.55;83.24;97287.72;5046049;28;20432;-77
2023/04/03 09:31:52;;;;;;;5.17;2.17;;;;;;;3.02;82.06;97247.00;5054013;28;20904;-77
2023/04/03 09:34:23;;;;;;;4.00;2.70;;;;;;;3.75;86.03;97276.53;5069224;28;20460;-76
2023/04/03 09:36:52;;;;;;;2.77;2.20;;;;;;;3.09;83.24;97284.91;5092440;28;20423;-77
2023/04/03 09:39:22;;;;;;;2.37;1.77;;;;;;;2.85;83.27;97288.97;5053906;28;20525;-77
2023/04/03 09:42:03;;;;;;;2.87;2.07;;;;;;;2.80;83.62;97281.88;5045326;28;20462;-76
2023/04/03 09:44:36;;;;;;;3.03;1.83;;;;;;;1.93;84.37;97209.25;5050598;28;20480;-77
2023/04/03 09:47:30;;;;;;;3.00;2.40;;;;;;;2.74;82.78;97272.44;5060445;28;20825;-77
2023/04/03 09:50:12;;;;;;;1.40;1.30;;;;;;;3.09;81.04;97291.97;5075845;28;20425;-77
2023/04/03 09:52:45;;;;;;;2.60;2.00;;;;;;;2.81;80.38;97236.47;5072418;28;20486;-77
2023/04/03 09:55:20;;;;;;;2.60;2.20;;;;;;;3.10;78.75;97281.28;5040326;28;20563;-77
2023/04/03 09:57:48;;;;;;;6.13;1.70;;;;;;;2.48;77.37;97247.22;5043988;28;20480;-77
2023/04/03 10:00:34;;;;;;;2.17;1.97;;;;;;;2.56;78.05;97236.31;5072386;28;20830;-77
2023/04/03 10:03:02;;;;;;;1.60;1.50;;;;;;;3.17;78.83;97273.97;5057250;28;20554;-77
2023/04/03 10:05:32;;;;;;;4.37;2.00;;;;;;;3.23;77.15;97280.81;5071962;28;20438;-77
2023/04/03 10:08:08;;;;;;;2.17;2.00;;;;;;;3.25;77.42;97276.09;5047171;28;20494;-76
2023/04/03 10:10:36;;;;;;;1.97;1.73;;;;;;;3.22;78.34;97241.88;5074004;28;20419;-77
2023/04/03 10:13:12;;;;;;;1.37;1.27;;;;;;;3.58;75.33;97258.44;5056770;28;20511;-77
2023/04/03 10:15:55;;;;;;;1.87;1.60;;;;;;;3.83;76.70;97261.09;5063943;28;20418;-76
2023/04/03 10:18:58;;;;;;;2.27;2.00;;;;;;;3.85;74.24;97269.47;5053469;28;20471;-77
2023/04/03 10:21:47;;;;;;;1.77;1.67;;;;;;;3.68;72.06;97255.06;5047034;28;20966;-77
2023/04/03 10:24:22;;;;;;;2.53;1.80;;;;;;;4.29;74.18;97257.75;5028218;28;20528;-77
2023/04/03 10:26:51;;;;;;;1.43;1.33;;;;;;;4.19;74.88;97265.59;5050115;28;20436;-77
2023/04/03 10:29:46;;;;;;;3.17;2.07;;;;;;;3.96;75.65;97211.94;5068638;28;20456;-77
2023/04/03 10:32:37;;;;;;;6.23;1.90;;;;;;;3.83;73.30;97258.47;5037435;28;20505;-77
2023/04/03 10:35:33;;;;;;;1.70;1.60;;;;;;;3.62;72.44;97254.28;5043727;28;20439;-77
2023/04/03 10:38:11;;;;;;;2.20;1.60;;;;;;;3.85;73.98;97253.00;5062419;28;20424;-77
2023/04/03 10:40:53;;;;;;;1.67;1.40;;;;;;;3.63;70.62;97227.09;5061000;28;20535;-77
2023/04/03 10:43:59;;;;;;;1.63;1.50;;;;;;;4.19;74.32;97242.81;5064339;28;20472;-77
2023/04/03 10:46:38;;;;;;;2.20;1.60;;;;;;;4.08;72.62;97223.72;5017147;28;20440;-77
2023/04/03 10:49:27;;;;;;;1.90;1.80;;;;;;;4.21;72.88;97253.81;5050455;28;20443;-77
2023/04/03 10:52:17;;;;;;;2.70;1.47;;;;;;;4.32;72.39;97247.53;5051338;28;20780;-77
2023/04/03 10:54:56;;;;;;;2.20;2.10;;;;;;;4.21;70.92;97209.31;5064674;28;20467;-77
2023/04/03 10:57:25;;;;;;;1.97;1.70;;;;;;;4.59;72.75;97236.75;5056600;28;20862;-77
2023/04/03 10:59:58;;;;;;;1.50;1.40;;;;;;;4.67;70.61;97211.84;5050046;28;20441;-77
2023/04/03 11:03:03;;;;;;;1.40;1.30;;;;;;;4.49;71.23;97233.38;5043942;28;20484;-77
2023/04/03 11:05:47;;;;;;;4.73;1.77;;;;;;;4.70;72.66;97234.91;5029969;28;20522;-77
2023/04/03 11:08:25;;;;;;;1.37;1.27;;;;;;;4.35;68.60;97212.19;5082476;28;20802;-77
2023/04/03 11:10:58;;;;;;;4.40;1.50;;;;;;;4.23;69.48;97201.97;5066134;28;20814;-77
2023/04/03 11:13:36;;;;;;;1.53;1.23;;;;;;;4.37;67.42;97229.19;5040892;28;20878;-77
2023/04/03 11:16:05;;;;;;;1.90;1.60;;;;;;;4.57;68.03;97214.50;5063835;28;20424;-77
2023/04/03 11:18:48;;;;;;;2.30;1.40;;;;;;;4.67;68.07;97177.81;5074218;28;20424;-77
2023/04/03 11:21:31;;;;;;;2.23;1.70;;;;;;;4.92;68.76;97213.63;5074219;28;20522;-76
2023/04/03 11:24:01;;;;;;;1.70;1.50;;;;;;;5.13;67.83;97199.38;5056238;28;20941;-77
2023/04/03 11:26:35;;;;;;;1.90;1.60;;;;;;;5.04;67.50;97208.84;5069468;28;20451;-77
2023/04/03 11:29:12;;;;;;;1.97;1.50;;;;;;;5.41;68.44;97189.28;5065471;28;20450;-76
2023/04/03 11:32:05;;;;;;;1.50;1.40;;;;;;;5.66;66.81;97228.47;5058560;28;20458;-77
2023/04/03 11:34:43;;;;;;;1.73;1.63;;;;;;;5.36;67.16;97213.72;5064365;28;20804;-77
2023/04/03 11:37:29;;;;;;;3.23;1.83;;;;;;;4.80;65.70;97184.31;5049242;28;20454;-77
2023/04/03 11:40:26;;;;;;;2.90;1.50;;;;;;;5.32;67.01;97215.28;5062825;28;20452;-77
2023/04/03 11:43:02;;;;;;;2.20;1.80;;;;;;;5.19;65.83;97221.88;5060899;28;20444;-77
2023/04/03 11:45:36;;;;;;;3.83;1.60;;;;;;;5.22;63.76;97231.09;5055136;28;20471;-77
2023/04/03 11:48:20;;;;;;;1.60;1.30;;;;;;;6.07;63.21;97225.59;5063376;28;20914;-77
2023/04/03 11:50:51;;;;;;;3.23;1.57;;;;;;;5.66;63.34;97197.00;5060167;28;20438;-77